createdAt,value
2022-12-01T00:02:05.792Z,4.56
2022-12-01T00:04:32.385Z,4.59
2022-12-01T00:06:58.933Z,4.61
2022-12-01T00:09:44.067Z,4.61
2022-12-01T00:12:10.390Z,4.62
2022-12-01T00:14:36.688Z,4.65
2022-12-01T00:17:04.835Z,4.67
2022-12-01T00:19:31.210Z,4.69
2022-12-01T00:21:57.565Z,4.69
2022-12-01T00:24:24.487Z,4.70
2022-12-01T00:26:50.854Z,4.71
2022-12-01T00:29:17.166Z,4.72
2022-12-01T00:31:43.500Z,4.72
2022-12-01T00:34:22.617Z,4.74
2022-12-01T00:36:49.387Z,4.76
2022-12-01T00:39:15.750Z,4.77
2022-12-01T00:41:42.116Z,4.77
2022-12-01T00:44:08.435Z,4.78
2022-12-01T00:46:34.792Z,4.79
2022-12-01T00:49:01.274Z,4.80
2022-12-01T00:51:27.603Z,4.81
2022-12-01T00:53:53.922Z,4.82
2022-12-01T00:56:21.166Z,4.84
2022-12-01T00:58:47.532Z,4.85
2022-12-01T01:01:14.014Z,4.86
2022-12-01T01:03:40.420Z,4.87
2022-12-01T01:06:10.271Z,4.87
2022-12-01T01:08:36.911Z,4.87
2022-12-01T01:11:04.157Z,4.87
2022-12-01T01:13:30.570Z,4.89
2022-12-01T01:16:06.393Z,4.90
2022-12-01T01:18:33.020Z,4.90
2022-12-01T01:21:07.897Z,4.90
2022-12-01T01:23:34.695Z,4.91
2022-12-01T01:26:02.953Z,4.91
2022-12-01T01:28:31.195Z,4.93
2022-12-01T01:30:58.064Z,4.91
2022-12-01T01:33:24.887Z,4.92
2022-12-01T01:35:53.074Z,4.91
2022-12-01T01:38:19.426Z,4.93
2022-12-01T01:40:46.623Z,4.94
2022-12-01T01:43:16.493Z,4.96
2022-12-01T01:45:43.211Z,4.96
2022-12-01T01:48:12.996Z,4.96
2022-12-01T01:50:39.810Z,4.97
2022-12-01T01:53:10.636Z,4.99
2022-12-01T01:55:37.790Z,4.98
2022-12-01T01:58:08.295Z,4.99
2022-12-01T02:00:35.903Z,5.01
2022-12-01T02:03:03.151Z,5.03
2022-12-01T02:05:32.521Z,5.02
2022-12-01T02:08:00.338Z,5.03
2022-12-01T02:11:04.319Z,5.02
2022-12-01T02:13:48.053Z,5.02
2022-12-01T02:16:24.515Z,5.02
2022-12-01T02:19:12.675Z,5.02
2022-12-01T02:21:51.070Z,5.02
2022-12-01T02:24:34.421Z,5.03
2022-12-01T02:27:28.374Z,5.04
2022-12-01T02:30:17.038Z,5.05
2022-12-01T02:32:54.947Z,5.06
2022-12-01T02:35:32.370Z,5.04
2022-12-01T02:38:28.745Z,5.02
2022-12-01T02:41:23.287Z,5.03
2022-12-01T02:44:03.349Z,5.03
2022-12-01T02:46:37.380Z,5.03
2022-12-01T02:49:10.049Z,5.03
2022-12-01T02:51:39.927Z,5.03
2022-12-01T02:54:07.070Z,5.02
2022-12-01T02:56:33.410Z,5.01
2022-12-01T02:58:59.786Z,5.00
2022-12-01T03:01:50.507Z,5.01
2022-12-01T03:04:29.841Z,5.02
2022-12-01T03:07:12.783Z,5.02
2022-12-01T03:09:52.808Z,5.02
2022-12-01T03:12:43.614Z,5.02
2022-12-01T03:15:25.023Z,5.02
2022-12-01T03:18:22.998Z,5.02
2022-12-01T03:20:59.326Z,5.01
2022-12-01T03:23:31.247Z,5.02
2022-12-01T03:26:01.751Z,5.02
2022-12-01T03:28:33.023Z,5.01
2022-12-01T03:31:07.919Z,5.02
2022-12-01T03:33:43.767Z,5.00
2022-12-01T03:36:19.438Z,5.01
2022-12-01T03:38:51.239Z,5.02
2022-12-01T03:41:22.622Z,5.01
2022-12-01T03:43:56.274Z,5.02
2022-12-01T03:46:41.003Z,5.01
2022-12-01T03:49:09.607Z,5.02
2022-12-01T03:52:06.938Z,5.01
2022-12-01T03:55:04.814Z,5.02
2022-12-01T03:57:55.526Z,5.01
2022-12-01T04:00:22.110Z,5.01
2022-12-01T04:02:48.923Z,5.01
2022-12-01T04:05:15.496Z,5.01
2022-12-01T04:07:41.888Z,5.00
2022-12-01T04:10:08.776Z,4.96
2022-12-01T04:12:35.116Z,4.94
2022-12-01T04:15:11.054Z,4.92
2022-12-01T04:17:37.568Z,4.91
2022-12-01T04:20:06.917Z,4.90
2022-12-01T04:22:33.891Z,4.89
2022-12-01T04:25:00.398Z,4.90
2022-12-01T04:27:26.714Z,4.89
2022-12-01T04:29:53.047Z,4.89
2022-12-01T04:32:19.478Z,4.89
2022-12-01T04:34:45.789Z,4.88
2022-12-01T04:37:12.516Z,4.89
2022-12-01T04:39:38.939Z,4.89
2022-12-01T04:42:05.504Z,4.88
2022-12-01T04:44:35.053Z,4.89
2022-12-01T04:47:02.592Z,4.88
2022-12-01T04:49:28.993Z,4.89
2022-12-01T04:51:55.532Z,4.89
2022-12-01T04:54:22.239Z,4.89
2022-12-01T04:56:48.695Z,4.89
2022-12-01T04:59:15.304Z,4.88
2022-12-01T05:01:41.744Z,4.87
2022-12-01T05:04:12.178Z,4.87
2022-12-01T05:06:38.558Z,4.87
2022-12-01T05:09:05.259Z,4.86
2022-12-01T05:11:32.538Z,4.83
2022-12-01T05:13:59.546Z,4.84
2022-12-01T05:16:29.889Z,4.86
2022-12-01T05:19:17.163Z,4.86
2022-12-01T05:21:45.382Z,4.82
2022-12-01T05:24:13.184Z,4.78
2022-12-01T05:26:40.358Z,4.76
2022-12-01T05:29:06.952Z,4.72
2022-12-01T05:31:33.338Z,4.66
2022-12-01T05:33:59.917Z,4.63
2022-12-01T05:36:26.367Z,4.60
2022-12-01T05:38:52.780Z,4.58
2022-12-01T05:41:19.259Z,4.59
2022-12-01T05:43:45.849Z,4.59
2022-12-01T05:46:12.321Z,4.60
2022-12-01T05:48:38.746Z,4.61
2022-12-01T05:51:13.503Z,4.61
2022-12-01T05:53:40.210Z,4.61
2022-12-01T05:56:08.223Z,4.61
2022-12-01T05:58:35.536Z,4.64
2022-12-01T06:01:02.244Z,4.66
2022-12-01T06:03:28.574Z,4.67
2022-12-01T06:05:54.977Z,4.64
2022-12-01T06:08:21.443Z,4.59
2022-12-01T06:10:48.029Z,4.56
2022-12-01T06:13:14.646Z,4.48
2022-12-01T06:15:41.086Z,4.44
2022-12-01T06:18:07.626Z,4.36
2022-12-01T06:20:33.954Z,4.31
2022-12-01T06:23:00.374Z,4.22
2022-12-01T06:25:26.739Z,4.19
2022-12-01T06:27:58.108Z,4.15
2022-12-01T06:30:25.507Z,4.10
2022-12-01T06:32:51.859Z,4.04
2022-12-01T06:35:18.326Z,3.95
2022-12-01T06:37:44.711Z,3.90
2022-12-01T06:40:11.642Z,3.84
2022-12-01T06:42:37.989Z,3.78
2022-12-01T06:45:05.485Z,3.72
2022-12-01T06:47:31.843Z,3.66
2022-12-01T06:49:58.177Z,3.64
2022-12-01T06:52:24.557Z,3.59
2022-12-01T06:54:50.909Z,3.55
2022-12-01T06:57:17.742Z,3.48
2022-12-01T06:59:44.510Z,3.41
2022-12-01T07:02:11.737Z,3.38
2022-12-01T07:04:38.149Z,3.37
2022-12-01T07:07:07.786Z,3.33
2022-12-01T07:09:34.530Z,3.31
2022-12-01T07:12:00.880Z,3.26
2022-12-01T07:14:27.865Z,3.25
2022-12-01T07:16:56.472Z,3.26
2022-12-01T07:19:25.240Z,3.23
2022-12-01T07:21:51.682Z,3.18
2022-12-01T07:24:18.026Z,3.17
2022-12-01T07:26:44.356Z,3.12
2022-12-01T07:29:10.970Z,3.10
2022-12-01T07:31:38.386Z,3.08
2022-12-01T07:34:05.666Z,3.07
2022-12-01T07:36:32.066Z,3.07
2022-12-01T07:38:58.469Z,3.07
2022-12-01T07:41:24.942Z,3.07
2022-12-01T07:43:51.300Z,3.03
2022-12-01T07:46:24.557Z,3.01
2022-12-01T07:48:55.522Z,3.02
2022-12-01T07:51:24.591Z,3.02
2022-12-01T07:53:52.071Z,3.03
2022-12-01T07:56:20.337Z,3.07
2022-12-01T07:58:47.192Z,3.12
2022-12-01T08:01:16.616Z,3.16
2022-12-01T08:03:44.053Z,3.24
2022-12-01T08:06:11.307Z,3.35
2022-12-01T08:13:42.140Z,3.61
2022-12-01T08:16:11.593Z,3.64
2022-12-01T08:18:39.648Z,3.69
2022-12-01T08:21:07.688Z,3.75
2022-12-01T08:23:34.280Z,3.81
2022-12-01T08:26:06.647Z,3.87
2022-12-01T08:28:36.050Z,3.92
2022-12-01T08:31:17.758Z,3.96
2022-12-01T08:33:44.918Z,4.00
2022-12-01T08:36:11.278Z,4.05
2022-12-01T08:38:38.060Z,4.12
2022-12-01T08:41:07.375Z,4.18
2022-12-01T08:43:56.563Z,4.21
2022-12-01T08:46:22.184Z,4.26
2022-12-01T08:48:48.594Z,4.32
2022-12-01T08:51:18.253Z,4.36
2022-12-01T08:53:48.633Z,4.41
2022-12-01T08:56:21.321Z,4.47
2022-12-01T08:58:48.184Z,4.53
2022-12-01T09:01:16.229Z,4.57
2022-12-01T09:03:43.704Z,4.62
2022-12-01T09:06:13.325Z,4.65
2022-12-01T09:08:41.170Z,4.69
2022-12-01T09:11:11.378Z,4.75
2022-12-01T09:13:39.463Z,4.80
2022-12-01T09:16:10.170Z,4.85
2022-12-01T09:18:36.619Z,4.89
2022-12-01T09:21:21.667Z,4.93
2022-12-01T09:23:48.730Z,4.99
2022-12-01T09:26:19.009Z,5.05
2022-12-01T09:28:52.410Z,5.08
2022-12-01T09:31:20.562Z,5.09
2022-12-01T09:33:47.038Z,5.13
2022-12-01T09:36:13.639Z,5.15
2022-12-01T09:38:40.398Z,5.18
2022-12-01T09:41:30.637Z,5.25
2022-12-01T09:44:05.547Z,5.32
2022-12-01T09:46:37.777Z,5.46
2022-12-01T09:49:12.493Z,5.52
2022-12-01T09:51:38.942Z,5.60
2022-12-01T09:54:06.988Z,5.68
2022-12-01T09:56:42.770Z,5.73
2022-12-01T09:59:17.926Z,5.77
2022-12-01T10:01:48.119Z,5.84
2022-12-01T10:04:24.893Z,5.90
2022-12-01T10:07:06.175Z,5.91
2022-12-01T10:09:35.493Z,5.96
2022-12-01T10:12:11.086Z,5.94
2022-12-01T10:14:37.899Z,5.93
2022-12-01T10:17:13.311Z,5.92
2022-12-01T10:19:55.171Z,5.93
2022-12-01T10:22:45.426Z,5.96
2022-12-01T10:25:25.441Z,6.02
2022-12-01T10:28:10.486Z,6.02
2022-12-01T10:30:48.272Z,5.99
2022-12-01T10:33:33.031Z,6.00
2022-12-01T10:35:59.446Z,6.13
2022-12-01T10:38:35.781Z,6.28
2022-12-01T10:41:05.439Z,6.33
2022-12-01T10:43:37.718Z,6.32
2022-12-01T10:46:19.194Z,6.30
2022-12-01T10:49:11.281Z,6.27
2022-12-01T10:51:55.633Z,6.25
2022-12-01T10:54:35.897Z,6.23
2022-12-01T10:57:04.004Z,6.25
2022-12-01T10:59:35.703Z,6.24
2022-12-01T11:02:03.766Z,6.21
2022-12-01T11:04:45.136Z,6.19
2022-12-01T11:07:18.268Z,6.20
2022-12-01T11:09:47.117Z,6.21
2022-12-01T11:12:20.029Z,6.32
2022-12-01T11:14:55.494Z,6.39
2022-12-01T11:17:32.887Z,6.42
2022-12-01T11:20:16.722Z,6.49
2022-12-01T11:22:43.143Z,6.56
2022-12-01T11:25:22.610Z,6.66
2022-12-01T11:27:57.431Z,6.73
2022-12-01T11:30:26.490Z,6.81
2022-12-01T11:32:56.396Z,6.79
2022-12-01T11:35:26.206Z,6.82
2022-12-01T11:38:27.892Z,6.88
2022-12-01T11:41:00.365Z,6.93
2022-12-01T11:43:30.244Z,6.98
2022-12-01T11:45:59.747Z,6.95
2022-12-01T11:48:28.897Z,7.00
2022-12-01T11:51:04.342Z,7.10
2022-12-01T11:53:32.291Z,7.15
2022-12-01T11:56:35.513Z,7.15
2022-12-01T11:59:06.731Z,7.25
2022-12-01T12:01:57.806Z,7.32
2022-12-01T12:04:52.862Z,7.34
2022-12-01T12:07:56.808Z,7.40
2022-12-01T12:10:51.191Z,7.48
2022-12-01T12:13:42.103Z,7.60
2022-12-01T12:16:38.209Z,7.68
2022-12-01T12:19:34.115Z,7.75
2022-12-01T12:22:11.478Z,7.78
2022-12-01T12:25:02.555Z,7.84
2022-12-01T12:27:50.241Z,7.85
2022-12-01T12:30:29.902Z,7.78
2022-12-01T12:33:19.823Z,7.78
2022-12-01T12:36:14.268Z,7.76
2022-12-01T12:39:16.464Z,7.65
2022-12-01T12:41:50.634Z,7.63
2022-12-01T12:44:38.503Z,7.59
2022-12-01T12:47:36.337Z,7.54
2022-12-01T12:50:36.754Z,7.48
2022-12-01T12:53:14.063Z,7.36
2022-12-01T12:55:46.353Z,7.30
2022-12-01T12:58:23.692Z,7.32
2022-12-01T13:01:01.359Z,7.37
2022-12-01T13:04:05.358Z,7.34
2022-12-01T13:06:43.403Z,7.33
2022-12-01T13:09:13.175Z,7.35
2022-12-01T13:11:56.809Z,7.38
2022-12-01T13:14:28.718Z,7.47
2022-12-01T13:17:02.719Z,7.55
2022-12-01T13:19:33.455Z,7.56
2022-12-01T13:22:01.488Z,7.54
2022-12-01T13:24:35.656Z,7.46
2022-12-01T13:27:15.558Z,7.34
2022-12-01T13:29:47.772Z,7.34
2022-12-01T13:32:26.556Z,7.34
2022-12-01T13:34:53.541Z,7.34
2022-12-01T13:37:45.902Z,7.27
2022-12-01T13:40:23.601Z,7.22
2022-12-01T13:43:04.204Z,7.15
2022-12-01T13:48:48.741Z,7.07
2022-12-01T13:51:15.414Z,7.07
2022-12-01T13:54:03.524Z,7.04
2022-12-01T13:56:43.857Z,7.05
2022-12-01T14:00:03.232Z,6.99
2022-12-01T14:02:32.047Z,6.97
2022-12-01T14:05:40.798Z,6.90
2022-12-01T14:08:28.245Z,6.79
2022-12-01T14:11:00.676Z,6.72
2022-12-01T14:13:28.807Z,6.73
2022-12-01T14:16:06.709Z,6.72
2022-12-01T14:18:43.217Z,6.74
2022-12-01T14:21:12.590Z,6.72
2022-12-01T14:24:01.663Z,6.69
2022-12-01T14:26:30.725Z,6.64
2022-12-01T14:29:00.041Z,6.59
2022-12-01T14:31:32.128Z,6.56
2022-12-01T14:34:24.398Z,6.54
2022-12-01T14:37:02.879Z,6.52
2022-12-01T14:39:35.967Z,6.46
2022-12-01T14:42:11.181Z,6.42
2022-12-01T14:44:48.941Z,6.38
2022-12-01T14:47:22.475Z,6.34
2022-12-01T14:50:01.558Z,6.28
2022-12-01T14:52:27.839Z,6.24
2022-12-01T14:54:57.881Z,6.20
2022-12-01T14:57:47.575Z,6.14
2022-12-01T15:00:23.086Z,6.09
2022-12-01T15:02:59.802Z,6.06
2022-12-01T15:05:28.821Z,6.00
2022-12-01T15:08:33.233Z,5.96
2022-12-01T15:10:54.880Z,5.90
2022-12-01T15:13:30.527Z,5.84
2022-12-01T15:15:59.474Z,5.76
2022-12-01T15:18:34.679Z,5.69
2022-12-01T15:21:13.685Z,5.64
2022-12-01T15:23:55.488Z,5.56
2022-12-01T15:26:24.464Z,5.50
2022-12-01T15:29:04.556Z,5.45
2022-12-01T15:31:34.920Z,5.34
2022-12-01T15:34:01.947Z,5.23
2022-12-01T15:36:28.522Z,5.16
2022-12-01T15:38:55.416Z,5.08
2022-12-01T15:41:30.986Z,5.01
2022-12-01T15:44:01.861Z,4.92
2022-12-01T15:46:34.456Z,4.84
2022-12-01T15:49:08.385Z,4.77
2022-12-01T15:51:35.046Z,4.71
2022-12-01T15:54:02.509Z,4.63
2022-12-01T15:56:33.208Z,4.57
2022-12-01T15:59:16.717Z,4.52
2022-12-01T16:01:44.266Z,4.45
2022-12-01T16:04:18.791Z,4.40
2022-12-01T16:07:03.643Z,4.35
2022-12-01T16:09:37.401Z,4.28
2022-12-01T16:12:13.072Z,4.25
2022-12-01T16:14:49.759Z,4.22
2022-12-01T16:17:17.097Z,4.17
2022-12-01T16:19:45.362Z,4.14
2022-12-01T16:22:11.614Z,4.09
2022-12-01T16:24:45.669Z,4.06
2022-12-01T16:27:31.638Z,4.05
2022-12-01T16:30:01.959Z,4.04
2022-12-01T16:32:40.438Z,4.01
2022-12-01T16:35:27.600Z,3.95
2022-12-01T16:37:54.814Z,3.92
2022-12-01T16:40:24.138Z,3.88
2022-12-01T16:42:50.628Z,3.84
2022-12-01T16:45:18.804Z,3.80
2022-12-01T16:47:47.720Z,3.75
2022-12-01T16:50:19.075Z,3.74
2022-12-01T16:52:46.081Z,3.72
2022-12-01T16:55:24.800Z,3.70
2022-12-01T16:57:51.190Z,3.67
2022-12-01T17:00:17.854Z,3.63
2022-12-01T17:02:44.350Z,3.59
2022-12-01T17:05:11.702Z,3.54
2022-12-01T17:07:38.065Z,3.49
2022-12-01T17:10:05.460Z,3.47
2022-12-01T17:12:31.818Z,3.45
2022-12-01T17:14:58.186Z,3.42
2022-12-01T17:17:24.551Z,3.39
2022-12-01T17:19:54.212Z,3.35
2022-12-01T17:22:21.046Z,3.30
2022-12-01T17:24:47.641Z,3.24
2022-12-01T17:27:14.137Z,3.18
2022-12-01T17:29:45.652Z,3.16
2022-12-01T17:32:13.808Z,3.10
2022-12-01T17:34:40.204Z,3.02
2022-12-01T17:37:06.982Z,2.95
2022-12-01T17:39:33.596Z,2.91
2022-12-01T17:42:00.130Z,2.90
2022-12-01T17:44:26.710Z,2.90
2022-12-01T17:46:53.091Z,2.87
2022-12-01T17:49:19.539Z,2.84
2022-12-01T17:51:45.910Z,2.83
2022-12-01T17:54:12.441Z,2.79
2022-12-01T17:56:38.925Z,2.77
2022-12-01T17:59:05.376Z,2.76
2022-12-01T18:01:31.997Z,2.71
2022-12-01T18:03:58.904Z,2.66
2022-12-01T18:06:26.682Z,2.61
2022-12-01T18:08:53.550Z,2.54
2022-12-01T18:11:20.547Z,2.53
2022-12-01T18:13:49.291Z,2.49
2022-12-01T18:16:21.275Z,2.41
2022-12-01T18:18:48.227Z,2.36
2022-12-01T18:21:16.703Z,2.35
2022-12-01T18:23:51.285Z,2.33
2022-12-01T18:26:19.003Z,2.31
2022-12-01T18:28:45.561Z,2.28
2022-12-01T18:31:14.802Z,2.27
2022-12-01T18:33:42.987Z,2.23
2022-12-01T18:36:12.851Z,2.23
2022-12-01T18:38:39.657Z,2.21
2022-12-01T18:41:06.039Z,2.20
2022-12-01T18:43:32.605Z,2.17
2022-12-01T18:45:59.719Z,2.12
2022-12-01T18:48:26.812Z,2.09
2022-12-01T18:50:59.090Z,2.04
2022-12-01T18:53:25.837Z,2.00
2022-12-01T18:55:52.151Z,2.01
2022-12-01T18:58:18.479Z,2.05
2022-12-01T19:00:44.958Z,2.08
2022-12-01T19:03:11.496Z,2.11
2022-12-01T19:05:38.855Z,2.10
2022-12-01T19:08:06.400Z,2.09
2022-12-01T19:10:34.964Z,2.08
2022-12-01T19:13:01.355Z,2.06
2022-12-01T19:15:27.732Z,2.03
2022-12-01T19:17:54.917Z,2.03
2022-12-01T19:20:21.306Z,2.03
2022-12-01T19:22:47.974Z,2.09
2022-12-01T19:25:14.558Z,2.13
2022-12-01T19:27:41.232Z,2.15
2022-12-01T19:30:08.081Z,2.19
2022-12-01T19:32:34.566Z,2.25
2022-12-01T19:35:00.862Z,2.29
2022-12-01T19:37:27.268Z,2.32
2022-12-01T19:39:53.590Z,2.35
2022-12-01T19:42:19.954Z,2.37
2022-12-01T19:44:46.435Z,2.41
2022-12-01T19:47:13.974Z,2.42
2022-12-01T19:49:42.881Z,2.45
2022-12-01T19:52:09.225Z,2.47
2022-12-01T19:54:37.548Z,2.51
2022-12-01T19:57:03.988Z,2.53
2022-12-01T19:59:30.326Z,2.55
2022-12-01T20:02:02.207Z,2.56
2022-12-01T20:04:30.660Z,2.61
2022-12-01T20:06:57.099Z,2.59
2022-12-01T20:09:23.480Z,2.60
2022-12-01T20:11:49.914Z,2.61
2022-12-01T20:14:16.311Z,2.63
2022-12-01T20:16:42.708Z,2.68
2022-12-01T20:19:10.446Z,2.73
2022-12-01T20:21:44.861Z,2.75
2022-12-01T20:24:13.958Z,2.75
2022-12-01T20:26:46.685Z,2.71
2022-12-01T20:29:16.639Z,2.73
2022-12-01T20:31:45.335Z,2.73
2022-12-01T20:34:18.227Z,2.75
2022-12-01T20:36:44.849Z,2.81
2022-12-01T20:39:12.138Z,2.86
2022-12-01T20:41:40.176Z,2.94
2022-12-01T20:44:07.995Z,3.01
2022-12-01T20:46:36.489Z,3.05
2022-12-01T20:49:04.691Z,3.10
2022-12-01T20:51:34.003Z,3.16
2022-12-01T20:56:48.596Z,3.25
2022-12-01T20:59:14.970Z,3.28
2022-12-01T21:01:41.439Z,3.34
2022-12-01T21:04:10.751Z,3.38
2022-12-01T21:06:37.154Z,3.42
2022-12-01T21:09:04.564Z,3.45
2022-12-01T21:11:54.939Z,3.48
2022-12-01T21:14:28.111Z,3.51
2022-12-01T21:16:58.892Z,3.54
2022-12-01T21:20:05.265Z,3.56
2022-12-01T21:22:31.802Z,3.58
2022-12-01T21:25:15.668Z,3.60
2022-12-01T21:27:42.238Z,3.60
2022-12-01T21:30:21.784Z,3.63
2022-12-01T21:32:49.661Z,3.65
2022-12-01T21:35:24.779Z,3.67
2022-12-01T21:37:58.009Z,3.68
2022-12-01T21:40:26.807Z,3.70
2022-12-01T21:42:53.278Z,3.71
2022-12-01T21:45:29.309Z,3.71
2022-12-01T21:48:00.534Z,3.72
2022-12-01T21:50:27.312Z,3.74
2022-12-01T21:52:53.778Z,3.76
2022-12-01T21:55:20.010Z,3.80
2022-12-01T21:57:53.164Z,3.80
2022-12-01T22:00:30.310Z,3.82
2022-12-01T22:03:08.898Z,3.85
2022-12-01T22:05:40.402Z,3.88
2022-12-01T22:08:29.108Z,3.88
2022-12-01T22:11:15.998Z,3.91
2022-12-01T22:13:49.574Z,3.91
2022-12-01T22:16:28.326Z,3.92
2022-12-01T22:19:00.977Z,3.95
2022-12-01T22:21:31.859Z,3.97
2022-12-01T22:24:04.591Z,3.98
2022-12-01T22:26:31.866Z,4.01
2022-12-01T22:28:59.741Z,4.01
2022-12-01T22:31:27.771Z,4.04
2022-12-01T22:34:03.387Z,4.07
2022-12-01T22:36:33.481Z,4.08
2022-12-01T22:39:00.603Z,4.11
2022-12-01T22:41:28.662Z,4.09
2022-12-01T22:44:00.462Z,4.10
2022-12-01T22:46:34.003Z,4.12
2022-12-01T22:49:23.970Z,4.12
2022-12-01T22:52:01.234Z,4.14
2022-12-01T22:54:32.084Z,4.15
2022-12-01T22:57:07.602Z,4.16
2022-12-01T22:59:36.618Z,4.17
2022-12-01T23:02:24.877Z,4.17
2022-12-01T23:04:59.557Z,4.16
2022-12-01T23:07:30.319Z,4.15
2022-12-01T23:10:02.219Z,4.17
2022-12-01T23:12:31.459Z,4.17
2022-12-01T23:15:07.381Z,4.18
2022-12-01T23:17:35.611Z,4.19
2022-12-01T23:20:21.774Z,4.17
2022-12-01T23:22:49.823Z,4.17
2022-12-01T23:25:19.428Z,4.18
2022-12-01T23:27:50.765Z,4.17
2022-12-01T23:30:20.471Z,4.18
2022-12-01T23:33:00.810Z,4.18
2022-12-01T23:35:27.281Z,4.17
2022-12-01T23:37:54.114Z,4.18
2022-12-01T23:40:30.935Z,4.18
2022-12-01T23:43:18.488Z,4.15
2022-12-01T23:45:51.395Z,4.14
2022-12-01T23:48:25.099Z,4.15
2022-12-01T23:50:54.239Z,4.14
2022-12-01T23:53:32.253Z,4.15
2022-12-01T23:56:07.148Z,4.16
2022-12-01T23:58:34.169Z,4.16
